createdAt,value
2024-05-09T00:00:18.157Z,20.60
2024-05-09T00:02:44.243Z,22.53
2024-05-09T00:05:06.239Z,18.30
2024-05-09T00:07:28.112Z,26.27
2024-05-09T00:09:49.932Z,21.00
2024-05-09T00:12:11.851Z,22.03
2024-05-09T00:14:33.772Z,19.40
2024-05-09T00:16:55.685Z,22.23
2024-05-09T00:19:17.624Z,20.50
2024-05-09T00:21:45.430Z,18.90
2024-05-09T00:24:07.241Z,19.47
2024-05-09T00:26:29.220Z,19.23
2024-05-09T00:28:51.173Z,20.50
2024-05-09T00:31:18.129Z,21.50
2024-05-09T00:33:40.187Z,17.97
2024-05-09T00:36:02.226Z,21.80
2024-05-09T00:38:24.082Z,19.70
2024-05-09T00:40:46.024Z,19.73
2024-05-09T00:43:08.047Z,18.73
2024-05-09T00:45:29.832Z,22.20
2024-05-09T00:47:53.985Z,21.13
2024-05-09T00:50:22.729Z,21.97
2024-05-09T00:52:51.529Z,20.30
2024-05-09T00:55:16.818Z,20.83
2024-05-09T00:57:39.859Z,18.65
2024-05-09T01:00:01.995Z,20.33
2024-05-09T01:02:23.954Z,18.27
2024-05-09T01:04:45.997Z,23.37
2024-05-09T01:07:11.128Z,21.13
2024-05-09T01:09:33.187Z,21.23
2024-05-09T01:11:55.132Z,21.03
2024-05-09T01:14:17.055Z,21.40
2024-05-09T01:16:40.075Z,18.40
2024-05-09T01:19:04.598Z,26.13
2024-05-09T01:21:26.602Z,19.00
2024-05-09T01:23:48.491Z,20.17
2024-05-09T01:26:10.416Z,21.73
2024-05-09T01:28:32.261Z,19.50
2024-05-09T01:30:54.240Z,21.57
2024-05-09T01:33:16.292Z,19.80
2024-05-09T01:35:41.357Z,22.13
2024-05-09T01:38:04.412Z,17.33
2024-05-09T01:40:36.190Z,21.77
2024-05-09T01:43:01.665Z,24.67
2024-05-09T01:45:23.641Z,19.30
2024-05-09T01:47:45.678Z,17.10
2024-05-09T01:50:10.716Z,18.93
2024-05-09T01:52:36.656Z,20.07
2024-05-09T01:55:00.105Z,21.00
2024-05-09T01:57:23.980Z,18.23
2024-05-09T01:59:45.810Z,23.07
2024-05-09T02:02:07.732Z,18.87
2024-05-09T02:04:30.618Z,16.23
2024-05-09T02:06:54.921Z,19.63
2024-05-09T02:09:16.748Z,17.87
2024-05-09T02:11:48.087Z,17.37
2024-05-09T02:14:11.197Z,15.40
2024-05-09T02:16:33.204Z,17.63
2024-05-09T02:18:55.080Z,20.83
2024-05-09T02:21:16.997Z,16.17
2024-05-09T02:23:39.046Z,15.83
2024-05-09T02:26:00.879Z,18.73
2024-05-09T02:28:22.760Z,18.70
2024-05-09T02:30:44.561Z,17.90
2024-05-09T02:33:08.591Z,17.17
2024-05-09T02:35:31.106Z,19.00
2024-05-09T02:37:53.070Z,18.43
2024-05-09T02:40:25.169Z,13.97
2024-05-09T02:42:50.896Z,17.87
2024-05-09T02:45:12.825Z,16.60
2024-05-09T02:47:34.821Z,18.70
2024-05-09T02:49:58.828Z,16.27
2024-05-09T02:52:21.977Z,18.00
2024-05-09T02:54:43.930Z,15.93
2024-05-09T02:57:06.051Z,17.30
2024-05-09T02:59:28.048Z,14.53
2024-05-09T03:01:49.980Z,13.80
2024-05-09T03:04:12.016Z,15.80
2024-05-09T03:06:33.906Z,14.60
2024-05-09T03:08:55.810Z,13.70
2024-05-09T03:11:24.986Z,17.60
2024-05-09T03:13:47.011Z,17.37
2024-05-09T03:16:08.829Z,22.27
2024-05-09T03:18:30.776Z,14.43
2024-05-09T03:20:52.683Z,18.80
2024-05-09T03:23:14.538Z,14.33
2024-05-09T03:25:36.388Z,19.37
2024-05-09T03:27:58.303Z,15.27
2024-05-09T03:30:26.206Z,15.70
2024-05-09T03:32:57.524Z,15.30
2024-05-09T03:35:19.594Z,13.23
2024-05-09T03:37:41.546Z,16.43
2024-05-09T03:40:07.363Z,16.97
2024-05-09T03:42:33.458Z,16.57
2024-05-09T03:44:55.238Z,12.90
2024-05-09T03:47:17.976Z,14.93
2024-05-09T03:49:39.956Z,14.60
2024-05-09T03:52:05.324Z,14.43
2024-05-09T03:54:27.760Z,14.33
2024-05-09T03:56:49.539Z,14.37
2024-05-09T03:59:11.392Z,14.73
2024-05-09T04:01:33.397Z,15.70
2024-05-09T04:03:56.012Z,16.13
2024-05-09T04:06:24.030Z,17.87
2024-05-09T04:08:46.027Z,15.57
2024-05-09T04:11:07.946Z,14.57
2024-05-09T04:13:29.796Z,15.73
2024-05-09T04:15:52.568Z,10.03
2024-05-09T04:18:17.856Z,16.50
2024-05-09T04:20:41.188Z,14.93
2024-05-09T04:23:03.681Z,13.50
2024-05-09T04:25:25.613Z,10.97
2024-05-09T04:27:47.487Z,12.60
2024-05-09T04:30:18.432Z,15.47
2024-05-09T04:32:44.149Z,15.45
2024-05-09T04:35:06.458Z,13.97
2024-05-09T04:37:30.174Z,13.23
2024-05-09T04:39:52.041Z,14.68
2024-05-09T04:42:14.910Z,12.17
2024-05-09T04:44:36.758Z,14.50
2024-05-09T04:46:58.759Z,14.50
2024-05-09T04:49:20.908Z,15.00
2024-05-09T04:51:42.785Z,10.00
2024-05-09T04:54:05.542Z,14.87
2024-05-09T04:56:27.710Z,15.07
2024-05-09T04:58:50.453Z,17.10
2024-05-09T05:01:12.360Z,15.30
2024-05-09T05:03:34.451Z,17.10
2024-05-09T05:05:56.630Z,13.30
2024-05-09T05:08:19.580Z,16.20
2024-05-09T05:10:42.811Z,21.47
2024-05-09T05:13:22.849Z,17.20
2024-05-09T05:15:46.942Z,26.67
2024-05-09T05:18:08.944Z,20.50
2024-05-09T05:20:33.741Z,18.67
2024-05-09T05:22:57.477Z,20.27
2024-05-09T05:25:19.316Z,23.60
2024-05-09T05:27:41.168Z,21.13
2024-05-09T05:30:03.544Z,22.30
2024-05-09T05:32:27.712Z,25.93
2024-05-09T05:34:49.713Z,21.07
2024-05-09T05:37:11.600Z,21.63
2024-05-09T05:39:33.418Z,20.43
2024-05-09T05:41:56.767Z,24.97
2024-05-09T05:44:18.741Z,23.50
2024-05-09T05:46:40.562Z,21.57
2024-05-09T05:49:02.422Z,25.63
2024-05-09T05:51:24.328Z,26.50
2024-05-09T05:53:46.366Z,27.17
2024-05-09T05:56:08.337Z,24.23
2024-05-09T05:58:30.173Z,24.07
2024-05-09T06:00:53.634Z,24.40
2024-05-09T06:03:15.879Z,28.53
2024-05-09T06:05:40.233Z,28.10
2024-05-09T06:08:02.679Z,23.90
2024-05-09T06:10:30.020Z,28.67
2024-05-09T06:12:59.959Z,23.30
2024-05-09T06:15:21.749Z,26.00
2024-05-09T06:17:43.830Z,27.00
2024-05-09T06:20:13.267Z,31.10
2024-05-09T06:22:38.812Z,28.43
2024-05-09T06:25:00.610Z,29.87
2024-05-09T06:27:22.422Z,28.97
2024-05-09T06:29:44.290Z,26.80
2024-05-09T06:32:06.850Z,24.47
2024-05-09T06:34:28.933Z,28.93
2024-05-09T06:36:50.840Z,27.27
2024-05-09T06:39:12.669Z,33.70
2024-05-09T06:41:34.519Z,26.40
2024-05-09T06:43:56.518Z,25.50
2024-05-09T06:46:18.674Z,28.63
2024-05-09T06:48:42.834Z,25.40
2024-05-09T06:51:05.313Z,27.52
2024-05-09T06:53:27.448Z,25.83
2024-05-09T06:55:49.988Z,29.10
2024-05-09T06:58:12.029Z,31.13
2024-05-09T07:00:39.088Z,26.13
2024-05-09T07:03:08.520Z,31.37
2024-05-09T07:05:30.632Z,25.80
2024-05-09T07:07:52.489Z,26.23
2024-05-09T07:10:21.951Z,27.70
2024-05-09T07:12:50.335Z,29.33
2024-05-09T07:15:12.177Z,26.20
2024-05-09T07:17:34.146Z,28.60
2024-05-09T07:19:56.191Z,37.40
2024-05-09T07:22:18.181Z,33.03
2024-05-09T07:24:40.101Z,32.37
2024-05-09T07:27:01.948Z,42.03
2024-05-09T07:29:24.001Z,47.57
2024-05-09T07:31:45.851Z,50.03
2024-05-09T07:34:07.839Z,52.00
2024-05-09T07:36:29.772Z,63.43
2024-05-09T07:38:51.751Z,67.87
2024-05-09T07:41:14.611Z,70.03
2024-05-09T07:43:37.840Z,71.50
2024-05-09T07:46:37.781Z,93.17
2024-05-09T07:53:40.466Z,107.63
2024-05-09T07:56:07.202Z,137.38
2024-05-09T07:58:29.516Z,151.23
2024-05-09T08:00:51.487Z,194.10
2024-05-09T08:03:13.360Z,236.85
2024-05-09T08:05:35.564Z,249.43
2024-05-09T08:07:57.594Z,342.52
2024-05-09T08:10:24.459Z,365.83
2024-05-09T08:12:49.172Z,370.40
2024-05-09T08:15:11.917Z,398.25
2024-05-09T08:17:33.814Z,421.67
2024-05-09T08:19:56.264Z,412.13
2024-05-09T08:22:18.211Z,398.90
2024-05-09T08:24:40.204Z,422.92
2024-05-09T08:27:02.356Z,431.30
2024-05-09T08:29:24.199Z,310.00
2024-05-09T08:31:46.068Z,307.45
2024-05-09T08:34:07.988Z,242.40
2024-05-09T08:36:29.944Z,189.27
2024-05-09T08:38:51.851Z,147.93
2024-05-09T08:41:15.698Z,151.68
2024-05-09T08:43:39.890Z,174.50
2024-05-09T08:46:07.350Z,217.80
2024-05-09T08:48:34.294Z,224.85
2024-05-09T08:50:59.442Z,201.48
2024-05-09T08:53:21.646Z,240.73
2024-05-09T08:55:46.025Z,246.30
2024-05-09T09:00:38.381Z,210.18
2024-05-09T09:03:03.032Z,222.45
2024-05-09T09:05:31.267Z,214.88
2024-05-09T09:07:53.361Z,279.23
2024-05-09T09:10:28.841Z,245.35
2024-05-09T09:13:00.133Z,289.90
2024-05-09T09:15:23.613Z,315.17
2024-05-09T09:17:58.864Z,279.90
2024-05-09T09:20:26.420Z,341.80
2024-05-09T09:22:55.719Z,327.80
2024-05-09T09:25:17.614Z,247.90
2024-05-09T09:27:39.672Z,335.63
2024-05-09T09:30:02.881Z,332.38
2024-05-09T09:32:29.014Z,254.52
2024-05-09T09:34:52.303Z,310.33
2024-05-09T09:37:19.191Z,294.73
2024-05-09T09:39:42.089Z,237.70
2024-05-09T09:42:05.691Z,362.80
2024-05-09T09:44:30.595Z,398.17
2024-05-09T09:46:58.978Z,252.73
2024-05-09T09:49:23.716Z,351.33
2024-05-09T09:51:47.262Z,340.08
2024-05-09T09:54:10.171Z,327.73
2024-05-09T09:56:35.284Z,328.42
2024-05-09T09:58:58.842Z,423.70
2024-05-09T10:01:20.923Z,395.47
2024-05-09T10:03:43.113Z,422.08
2024-05-09T10:06:07.646Z,439.88
2024-05-09T10:10:51.995Z,333.45
2024-05-09T10:13:14.269Z,461.05
2024-05-09T10:15:50.771Z,357.27
2024-05-09T10:18:13.145Z,289.40
2024-05-09T10:20:42.740Z,317.90
2024-05-09T10:23:05.483Z,391.05
2024-05-09T10:25:27.405Z,351.88
2024-05-09T10:27:55.983Z,324.50
2024-05-09T10:30:29.926Z,364.70
2024-05-09T10:32:57.737Z,329.55
2024-05-09T10:35:21.260Z,349.17
2024-05-09T10:37:43.756Z,410.57
2024-05-09T10:40:12.035Z,469.05
2024-05-09T10:42:39.335Z,371.15
2024-05-09T10:45:02.227Z,411.75
2024-05-09T10:47:25.164Z,341.95
2024-05-09T10:49:49.128Z,412.75
2024-05-09T10:52:11.142Z,593.35
2024-05-09T10:54:39.750Z,484.27
2024-05-09T10:57:01.609Z,452.85
2024-05-09T10:59:24.435Z,477.25
2024-05-09T11:01:46.430Z,529.78
2024-05-09T11:04:08.648Z,350.80
2024-05-09T11:06:31.065Z,427.27
2024-05-09T11:08:53.355Z,383.02
2024-05-09T11:11:16.488Z,541.85
2024-05-09T11:13:40.712Z,384.70
2024-05-09T11:16:04.163Z,449.08
2024-05-09T11:18:30.760Z,375.42
2024-05-09T11:20:57.131Z,417.85
2024-05-09T11:23:21.817Z,525.03
2024-05-09T11:25:52.377Z,433.40
2024-05-09T11:28:14.417Z,444.38
2024-05-09T11:30:36.440Z,484.02
2024-05-09T11:32:58.924Z,455.55
2024-05-09T11:35:21.080Z,462.67
2024-05-09T11:37:42.981Z,453.52
2024-05-09T11:40:11.426Z,422.52
2024-05-09T11:42:35.548Z,493.88
2024-05-09T11:44:57.395Z,485.75
2024-05-09T11:47:21.633Z,458.13
2024-05-09T11:49:43.788Z,469.90
2024-05-09T11:52:05.876Z,508.25
2024-05-09T11:54:27.853Z,433.75
2024-05-09T11:56:51.682Z,437.83
2024-05-09T11:59:13.557Z,455.02
2024-05-09T12:01:35.624Z,498.40
2024-05-09T12:03:57.812Z,496.55
2024-05-09T12:06:20.340Z,467.38
2024-05-09T12:08:42.206Z,513.75
2024-05-09T12:11:04.528Z,526.00
2024-05-09T12:13:26.528Z,445.33
2024-05-09T12:15:48.508Z,537.03
2024-05-09T12:18:10.797Z,465.33
2024-05-09T12:20:38.383Z,494.35
2024-05-09T12:23:01.999Z,540.58
2024-05-09T12:25:23.842Z,469.63
2024-05-09T12:27:46.763Z,478.27
2024-05-09T12:30:11.558Z,464.88
2024-05-09T12:32:36.205Z,429.65
2024-05-09T12:34:58.097Z,431.17
2024-05-09T12:37:20.150Z,427.48
2024-05-09T12:39:42.062Z,376.00
2024-05-09T12:42:04.516Z,487.63
2024-05-09T12:44:26.344Z,476.67
2024-05-09T12:46:48.654Z,409.40
2024-05-09T12:49:10.816Z,291.73
2024-05-09T12:51:34.323Z,274.58
2024-05-09T12:53:56.243Z,425.17
2024-05-09T12:56:18.513Z,446.58
2024-05-09T12:58:40.426Z,471.88
2024-05-09T13:01:02.305Z,464.52
2024-05-09T13:03:25.989Z,504.70
2024-05-09T13:05:49.876Z,479.25
2024-05-09T13:08:13.382Z,413.15
2024-05-09T13:10:35.653Z,510.20
2024-05-09T13:12:57.684Z,405.83
2024-05-09T13:15:19.629Z,359.17
2024-05-09T13:17:41.753Z,377.55
2024-05-09T13:20:05.607Z,464.75
2024-05-09T13:22:27.570Z,328.30
2024-05-09T13:24:49.636Z,328.90
2024-05-09T13:27:11.703Z,496.13
2024-05-09T13:29:33.579Z,402.20
2024-05-09T13:31:55.432Z,475.75
2024-05-09T13:34:17.487Z,422.90
2024-05-09T13:36:39.810Z,404.77
2024-05-09T13:39:02.209Z,472.45
2024-05-09T13:41:24.210Z,352.02
2024-05-09T13:43:46.002Z,440.25
2024-05-09T13:46:08.437Z,535.03
2024-05-09T13:48:31.028Z,492.15
2024-05-09T13:50:53.094Z,432.70
2024-05-09T13:53:15.042Z,508.33
2024-05-09T13:55:40.761Z,461.45
2024-05-09T13:58:03.259Z,378.55
2024-05-09T14:02:50.103Z,476.90
2024-05-09T14:05:12.114Z,461.80
2024-05-09T14:07:34.112Z,415.60
2024-05-09T14:09:56.121Z,440.88
2024-05-09T14:12:18.191Z,426.58
2024-05-09T14:14:40.051Z,345.90
2024-05-09T14:17:01.976Z,341.83
2024-05-09T14:19:23.902Z,415.88
2024-05-09T14:21:45.894Z,276.77
2024-05-09T14:24:07.864Z,290.52
2024-05-09T14:26:29.865Z,362.58
2024-05-09T14:28:51.849Z,437.50
2024-05-09T14:31:13.750Z,383.90
2024-05-09T14:33:36.648Z,385.33
2024-05-09T14:35:58.935Z,364.27
2024-05-09T14:38:21.058Z,306.50
2024-05-09T14:40:44.166Z,269.85
2024-05-09T14:43:06.240Z,319.38
2024-05-09T14:45:28.486Z,372.70
2024-05-09T14:47:50.944Z,322.65
2024-05-09T14:50:19.588Z,331.52
2024-05-09T14:52:49.354Z,341.83
2024-05-09T14:55:12.342Z,269.45
2024-05-09T14:57:35.430Z,266.77
2024-05-09T14:59:57.320Z,265.60
2024-05-09T15:02:19.369Z,344.95
2024-05-09T15:04:41.543Z,461.83
2024-05-09T15:07:04.061Z,491.30
2024-05-09T15:09:26.579Z,534.97
2024-05-09T15:11:48.512Z,394.20
2024-05-09T15:14:10.305Z,438.48
2024-05-09T15:16:32.356Z,528.28
2024-05-09T15:18:54.569Z,508.10
2024-05-09T15:21:16.501Z,406.95
2024-05-09T15:23:38.356Z,389.58
2024-05-09T15:26:00.458Z,410.60
2024-05-09T15:28:22.684Z,461.05
2024-05-09T15:30:46.560Z,425.20
2024-05-09T15:35:31.619Z,367.17
2024-05-09T15:37:53.709Z,381.45
2024-05-09T15:40:25.994Z,477.88
2024-05-09T15:42:56.939Z,529.95
2024-05-09T15:45:18.918Z,539.58
2024-05-09T15:47:40.954Z,535.05
2024-05-09T15:50:03.555Z,528.10
2024-05-09T15:52:25.631Z,430.75
2024-05-09T15:54:47.532Z,420.23
2024-05-09T15:57:09.998Z,381.60
2024-05-09T15:59:31.994Z,430.58
2024-05-09T16:01:54.503Z,442.13
2024-05-09T16:04:16.696Z,488.73
2024-05-09T16:06:39.702Z,548.58
2024-05-09T16:09:01.988Z,446.05
2024-05-09T16:11:24.288Z,454.75
2024-05-09T16:13:46.157Z,424.67
2024-05-09T16:16:08.420Z,486.55
2024-05-09T16:18:30.409Z,524.72
2024-05-09T16:20:59.546Z,441.90
2024-05-09T16:23:21.361Z,435.30
2024-05-09T16:25:46.096Z,426.65
2024-05-09T16:28:10.486Z,381.13
2024-05-09T16:30:35.445Z,312.60
2024-05-09T16:32:58.360Z,394.92
2024-05-09T16:35:20.263Z,410.50
2024-05-09T16:37:42.173Z,343.85
2024-05-09T16:40:05.868Z,357.70
2024-05-09T16:42:31.368Z,406.05
2024-05-09T16:44:53.691Z,406.25
2024-05-09T16:47:15.747Z,301.92
2024-05-09T16:49:37.598Z,300.40
2024-05-09T16:51:59.694Z,373.25
2024-05-09T16:54:21.566Z,371.33
2024-05-09T16:56:43.562Z,450.30
2024-05-09T16:59:05.623Z,381.88
2024-05-09T17:01:28.858Z,354.92
2024-05-09T17:03:51.001Z,311.42
2024-05-09T17:06:13.341Z,374.67
2024-05-09T17:08:37.020Z,375.98
2024-05-09T17:10:59.279Z,392.27
2024-05-09T17:13:22.745Z,401.55
2024-05-09T17:15:45.354Z,482.93
2024-05-09T17:18:07.796Z,341.73
2024-05-09T17:20:34.346Z,473.85
2024-05-09T17:22:58.442Z,361.85
2024-05-09T17:25:20.443Z,393.73
2024-05-09T17:27:42.543Z,323.33
2024-05-09T17:30:06.369Z,337.45
2024-05-09T17:32:29.948Z,304.90
2024-05-09T17:34:51.934Z,290.13
2024-05-09T17:37:13.896Z,269.58
2024-05-09T17:39:35.826Z,278.08
2024-05-09T17:41:57.659Z,286.35
2024-05-09T17:44:19.557Z,268.52
2024-05-09T17:46:42.482Z,387.25
2024-05-09T17:49:04.686Z,416.58
2024-05-09T17:51:26.758Z,412.88
2024-05-09T17:53:48.586Z,342.90
2024-05-09T17:56:10.737Z,394.65
2024-05-09T17:58:33.039Z,424.63
2024-05-09T18:00:55.280Z,361.65
2024-05-09T18:03:17.571Z,301.42
2024-05-09T18:05:52.633Z,270.38
2024-05-09T18:08:14.644Z,292.85
2024-05-09T18:11:04.611Z,294.35
2024-05-09T18:13:26.940Z,454.52
2024-05-09T18:15:49.056Z,371.90
2024-05-09T18:18:11.923Z,503.95
2024-05-09T18:20:42.171Z,445.83
2024-05-09T18:23:07.146Z,371.05
2024-05-09T18:25:28.942Z,456.35
2024-05-09T18:27:50.957Z,467.42
2024-05-09T18:30:24.128Z,484.55
2024-05-09T18:32:53.495Z,406.98
2024-05-09T18:35:15.604Z,465.48
2024-05-09T18:37:40.378Z,453.58
2024-05-09T18:40:02.329Z,473.05
2024-05-09T18:42:24.570Z,386.70
2024-05-09T18:44:46.534Z,502.13
2024-05-09T18:47:10.424Z,326.65
2024-05-09T18:49:32.553Z,338.05
2024-05-09T18:51:54.532Z,332.88
2024-05-09T18:54:16.395Z,382.75
2024-05-09T18:56:38.253Z,423.80
2024-05-09T18:59:00.162Z,498.08
2024-05-09T19:01:22.138Z,533.10
2024-05-09T19:03:44.358Z,510.42
2024-05-09T19:06:06.699Z,496.33
2024-05-09T19:08:29.820Z,488.77
2024-05-09T19:10:52.909Z,451.77
2024-05-09T19:13:15.219Z,391.33
2024-05-09T19:15:40.352Z,290.70
2024-05-09T19:18:03.737Z,332.73
2024-05-09T19:20:31.886Z,268.08
2024-05-09T19:22:56.640Z,267.58
2024-05-09T19:25:19.399Z,240.70
2024-05-09T19:27:42.526Z,208.98
2024-05-09T19:30:13.897Z,160.82
2024-05-09T19:32:41.070Z,151.73
2024-05-09T19:35:03.060Z,141.30
2024-05-09T19:37:24.961Z,144.13
2024-05-09T19:39:47.382Z,153.73
2024-05-09T19:42:09.252Z,165.32
2024-05-09T19:44:31.201Z,155.45
2024-05-09T19:46:53.261Z,146.55
2024-05-09T19:49:15.227Z,147.85
2024-05-09T19:52:06.543Z,139.95
2024-05-09T19:54:28.448Z,105.95
2024-05-09T19:56:50.366Z,84.97
2024-05-09T19:59:13.049Z,78.83
2024-05-09T20:01:35.076Z,68.75
2024-05-09T20:03:59.216Z,63.95
2024-05-09T20:06:24.422Z,58.80
2024-05-09T20:08:46.220Z,57.57
2024-05-09T20:11:33.505Z,58.07
2024-05-09T20:13:56.962Z,65.30
2024-05-09T20:16:19.617Z,63.13
2024-05-09T20:18:41.758Z,70.67
2024-05-09T20:21:04.097Z,85.03
2024-05-09T20:23:26.019Z,111.65
2024-05-09T20:25:47.790Z,65.70
2024-05-09T20:28:11.416Z,65.27
2024-05-09T20:30:35.300Z,54.93
2024-05-09T20:35:19.721Z,71.70
2024-05-09T20:37:41.556Z,58.87
2024-05-09T20:40:05.072Z,45.03
2024-05-09T20:42:29.648Z,44.97
2024-05-09T20:44:51.455Z,43.07
2024-05-09T20:47:14.852Z,35.10
2024-05-09T20:49:36.806Z,33.70
2024-05-09T20:51:58.870Z,39.47
2024-05-09T20:54:20.770Z,35.67
2024-05-09T20:56:43.230Z,40.10
2024-05-09T20:59:05.018Z,47.43
2024-05-09T21:01:27.017Z,56.43
2024-05-09T21:03:49.099Z,49.13
2024-05-09T21:06:11.374Z,52.90
2024-05-09T21:08:33.223Z,43.47
2024-05-09T21:10:55.313Z,36.63
2024-05-09T21:13:17.409Z,28.13
2024-05-09T21:15:39.514Z,31.10
2024-05-09T21:18:01.845Z,24.40
2024-05-09T21:20:30.971Z,30.10
2024-05-09T21:22:55.308Z,31.43
2024-05-09T21:25:17.296Z,26.70
2024-05-09T21:27:39.367Z,26.63
2024-05-09T21:30:01.219Z,22.63
2024-05-09T21:32:23.164Z,26.57
2024-05-09T21:34:45.177Z,21.03
2024-05-09T21:37:07.238Z,23.27
2024-05-09T21:39:30.292Z,26.53
2024-05-09T21:41:52.235Z,25.53
2024-05-09T21:44:14.090Z,27.80
2024-05-09T21:46:36.152Z,26.60
2024-05-09T21:48:58.216Z,21.40
2024-05-09T21:51:21.148Z,25.97
2024-05-09T21:53:43.001Z,29.70
2024-05-09T21:56:05.412Z,25.77
2024-05-09T21:58:27.382Z,31.17
2024-05-09T22:00:49.348Z,29.90
2024-05-09T22:03:12.385Z,28.80
2024-05-09T22:05:34.974Z,29.83
2024-05-09T22:07:58.985Z,29.17
2024-05-09T22:10:26.463Z,28.92
2024-05-09T22:12:54.221Z,28.93
2024-05-09T22:15:16.095Z,33.20
2024-05-09T22:17:41.182Z,29.63
2024-05-09T22:20:07.411Z,31.97
2024-05-09T22:22:33.729Z,33.53
2024-05-09T22:24:55.676Z,29.70
2024-05-09T22:27:17.923Z,27.17
2024-05-09T22:29:39.820Z,31.63
2024-05-09T22:32:01.741Z,33.63
2024-05-09T22:34:23.694Z,31.23
2024-05-09T22:36:45.750Z,37.97
2024-05-09T22:39:07.657Z,34.73
2024-05-09T22:41:29.572Z,36.33
2024-05-09T22:43:51.404Z,36.93
2024-05-09T22:46:16.545Z,33.97
2024-05-09T22:48:38.816Z,45.67
2024-05-09T22:51:00.798Z,30.83
2024-05-09T22:53:25.028Z,31.80
2024-05-09T22:55:47.064Z,37.85
2024-05-09T22:58:08.924Z,35.37
2024-05-09T23:00:32.618Z,36.27
2024-05-09T23:02:55.033Z,33.75
2024-05-09T23:05:17.050Z,39.40
2024-05-09T23:07:39.052Z,29.60
2024-05-09T23:10:00.963Z,35.07
2024-05-09T23:12:22.903Z,36.63
2024-05-09T23:14:45.346Z,31.07
2024-05-09T23:17:07.201Z,35.80
2024-05-09T23:19:29.140Z,31.03
2024-05-09T23:21:51.168Z,38.10
2024-05-09T23:24:13.222Z,32.07
2024-05-09T23:26:35.198Z,35.50
2024-05-09T23:28:57.135Z,34.27
2024-05-09T23:31:19.031Z,33.20
2024-05-09T23:33:47.199Z,34.97
2024-05-09T23:36:09.221Z,39.77
2024-05-09T23:38:31.058Z,38.87
2024-05-09T23:40:52.943Z,43.40
2024-05-09T23:43:14.973Z,37.60
2024-05-09T23:45:37.273Z,33.97
2024-05-09T23:47:59.875Z,39.03
2024-05-09T23:50:30.231Z,33.90
2024-05-09T23:52:55.821Z,34.53
2024-05-09T23:55:17.976Z,32.60
2024-05-09T23:57:41.071Z,34.10
